PAGL

Golovin Airport

Airport
ICAO code
PAGL
IATA Code
GLV
Summary
ICAO Region
NAM
ICAO Territory
Location

, Alaska

Serving
Golovin
Elevation
59 ft
Coordinates
64° 33' 2" N , 163° 0' 26" W
Metar
PAGL 240456Z AUTO 00000KT 10SM CLR 19/13 A3005 RMK AO2 SLP171 T01890133

Runways

Designator Length Width Surface Rops
2/20 1219 23 GRAVEL-G No/No

Airport map

Aerial View

SKYbrary Partners:

Safety knowledge contributed by: